sensor_id;sensor_type;location;lat;lon;timestamp;P1;durP1;ratioP1;P2;durP2;ratioP2
15474;SDS011;7839;50.462;9.678;2023-04-19T00:02:47;7.90;;;6.87;;
15474;SDS011;7839;50.462;9.678;2023-04-19T00:09:28;7.87;;;7.07;;
15474;SDS011;7839;50.462;9.678;2023-04-19T00:16:08;8.40;;;7.23;;
15474;SDS011;7839;50.462;9.678;2023-04-19T00:22:50;7.70;;;6.90;;
15474;SDS011;7839;50.462;9.678;2023-04-19T00:29:31;6.50;;;5.90;;
15474;SDS011;7839;50.462;9.678;2023-04-19T00:36:11;6.03;;;5.40;;
15474;SDS011;7839;50.462;9.678;2023-04-19T00:42:51;6.53;;;5.23;;
15474;SDS011;7839;50.462;9.678;2023-04-19T00:49:33;5.20;;;4.70;;
15474;SDS011;7839;50.462;9.678;2023-04-19T00:56:14;6.00;;;5.43;;
15474;SDS011;7839;50.462;9.678;2023-04-19T01:02:55;6.50;;;5.90;;
15474;SDS011;7839;50.462;9.678;2023-04-19T01:09:38;7.57;;;6.77;;
15474;SDS011;7839;50.462;9.678;2023-04-19T01:16:19;8.60;;;7.40;;
15474;SDS011;7839;50.462;9.678;2023-04-19T01:22:59;8.20;;;7.30;;
15474;SDS011;7839;50.462;9.678;2023-04-19T01:29:40;8.67;;;7.77;;
15474;SDS011;7839;50.462;9.678;2023-04-19T01:36:20;8.90;;;8.00;;
15474;SDS011;7839;50.462;9.678;2023-04-19T01:43:00;9.83;;;8.83;;
15474;SDS011;7839;50.462;9.678;2023-04-19T01:49:40;9.90;;;8.93;;
15474;SDS011;7839;50.462;9.678;2023-04-19T01:56:20;11.03;;;9.83;;
15474;SDS011;7839;50.462;9.678;2023-04-19T02:03:01;12.07;;;10.83;;
15474;SDS011;7839;50.462;9.678;2023-04-19T02:09:41;12.47;;;11.07;;
15474;SDS011;7839;50.462;9.678;2023-04-19T02:16:21;12.27;;;10.90;;
15474;SDS011;7839;50.462;9.678;2023-04-19T02:23:02;13.00;;;10.20;;
15474;SDS011;7839;50.462;9.678;2023-04-19T02:29:42;13.60;;;10.93;;
15474;SDS011;7839;50.462;9.678;2023-04-19T02:36:23;10.93;;;9.83;;
15474;SDS011;7839;50.462;9.678;2023-04-19T02:43:03;11.23;;;9.77;;
15474;SDS011;7839;50.462;9.678;2023-04-19T02:49:43;13.53;;;10.40;;
15474;SDS011;7839;50.462;9.678;2023-04-19T02:56:24;11.47;;;10.10;;
15474;SDS011;7839;50.462;9.678;2023-04-19T03:03:04;11.52;;;10.13;;
15474;SDS011;7839;50.462;9.678;2023-04-19T03:09:44;10.27;;;9.20;;
15474;SDS011;7839;50.462;9.678;2023-04-19T03:16:25;12.60;;;8.97;;
15474;SDS011;7839;50.462;9.678;2023-04-19T03:23:05;10.30;;;8.30;;
15474;SDS011;7839;50.462;9.678;2023-04-19T03:29:46;9.20;;;8.17;;
15474;SDS011;7839;50.462;9.678;2023-04-19T03:36:27;10.20;;;7.83;;
15474;SDS011;7839;50.462;9.678;2023-04-19T03:43:08;9.00;;;7.63;;
15474;SDS011;7839;50.462;9.678;2023-04-19T03:49:48;9.67;;;7.37;;
15474;SDS011;7839;50.462;9.678;2023-04-19T03:56:28;8.10;;;6.90;;
15474;SDS011;7839;50.462;9.678;2023-04-19T04:03:08;9.37;;;8.37;;
15474;SDS011;7839;50.462;9.678;2023-04-19T04:09:49;10.10;;;8.43;;
15474;SDS011;7839;50.462;9.678;2023-04-19T04:16:29;9.00;;;8.00;;
15474;SDS011;7839;50.462;9.678;2023-04-19T04:23:09;9.27;;;8.27;;
15474;SDS011;7839;50.462;9.678;2023-04-19T04:29:50;11.83;;;9.50;;
15474;SDS011;7839;50.462;9.678;2023-04-19T04:36:30;9.43;;;7.93;;
15474;SDS011;7839;50.462;9.678;2023-04-19T04:43:11;8.43;;;7.57;;
15474;SDS011;7839;50.462;9.678;2023-04-19T04:49:52;8.27;;;7.30;;
15474;SDS011;7839;50.462;9.678;2023-04-19T04:56:32;7.70;;;6.87;;
15474;SDS011;7839;50.462;9.678;2023-04-19T05:03:12;7.77;;;5.90;;
15474;SDS011;7839;50.462;9.678;2023-04-19T05:09:53;6.07;;;5.37;;
15474;SDS011;7839;50.462;9.678;2023-04-19T05:16:33;6.40;;;5.63;;
15474;SDS011;7839;50.462;9.678;2023-04-19T05:23:13;6.60;;;4.87;;
15474;SDS011;7839;50.462;9.678;2023-04-19T05:29:53;5.07;;;4.10;;
15474;SDS011;7839;50.462;9.678;2023-04-19T05:36:34;4.03;;;3.67;;
15474;SDS011;7839;50.462;9.678;2023-04-19T05:43:14;5.37;;;4.37;;
15474;SDS011;7839;50.462;9.678;2023-04-19T05:49:56;5.27;;;4.20;;
15474;SDS011;7839;50.462;9.678;2023-04-19T05:56:37;4.17;;;3.77;;
15474;SDS011;7839;50.462;9.678;2023-04-19T06:03:17;5.43;;;4.30;;
15474;SDS011;7839;50.462;9.678;2023-04-19T06:09:58;5.10;;;4.60;;
15474;SDS011;7839;50.462;9.678;2023-04-19T06:16:39;5.13;;;4.67;;
15474;SDS011;7839;50.462;9.678;2023-04-19T06:23:19;6.03;;;4.70;;
15474;SDS011;7839;50.462;9.678;2023-04-19T06:30:00;5.00;;;4.37;;
15474;SDS011;7839;50.462;9.678;2023-04-19T06:36:41;6.63;;;4.80;;
15474;SDS011;7839;50.462;9.678;2023-04-19T06:43:21;4.93;;;4.07;;
15474;SDS011;7839;50.462;9.678;2023-04-19T06:50:02;5.20;;;4.50;;
15474;SDS011;7839;50.462;9.678;2023-04-19T06:56:43;4.60;;;3.70;;
15474;SDS011;7839;50.462;9.678;2023-04-19T07:03:26;4.07;;;3.73;;
15474;SDS011;7839;50.462;9.678;2023-04-19T07:10:08;4.87;;;3.87;;
15474;SDS011;7839;50.462;9.678;2023-04-19T07:16:48;4.70;;;4.30;;
15474;SDS011;7839;50.462;9.678;2023-04-19T07:23:30;7.70;;;4.47;;
15474;SDS011;7839;50.462;9.678;2023-04-19T07:30:10;7.07;;;4.80;;
15474;SDS011;7839;50.462;9.678;2023-04-19T07:36:52;4.80;;;4.40;;
15474;SDS011;7839;50.462;9.678;2023-04-19T07:43:32;7.07;;;5.40;;
15474;SDS011;7839;50.462;9.678;2023-04-19T07:50:12;5.85;;;4.40;;
15474;SDS011;7839;50.462;9.678;2023-04-19T07:56:53;5.63;;;4.90;;
15474;SDS011;7839;50.462;9.678;2023-04-19T08:03:33;6.38;;;5.50;;
15474;SDS011;7839;50.462;9.678;2023-04-19T08:10:14;7.03;;;6.07;;
15474;SDS011;7839;50.462;9.678;2023-04-19T08:16:54;9.77;;;6.23;;
15474;SDS011;7839;50.462;9.678;2023-04-19T08:23:35;7.10;;;5.53;;
15474;SDS011;7839;50.462;9.678;2023-04-19T08:30:15;6.38;;;5.03;;
15474;SDS011;7839;50.462;9.678;2023-04-19T08:36:55;6.05;;;5.25;;
15474;SDS011;7839;50.462;9.678;2023-04-19T08:43:36;5.40;;;4.73;;
15474;SDS011;7839;50.462;9.678;2023-04-19T08:50:16;6.80;;;4.10;;
15474;SDS011;7839;50.462;9.678;2023-04-19T08:56:59;5.63;;;4.17;;
15474;SDS011;7839;50.462;9.678;2023-04-19T09:03:43;5.97;;;3.90;;
15474;SDS011;7839;50.462;9.678;2023-04-19T09:10:26;5.87;;;3.63;;
15474;SDS011;7839;50.462;9.678;2023-04-19T09:17:13;3.30;;;2.83;;
15474;SDS011;7839;50.462;9.678;2023-04-19T09:23:53;3.13;;;2.50;;
15474;SDS011;7839;50.462;9.678;2023-04-19T09:30:34;2.40;;;2.03;;
15474;SDS011;7839;50.462;9.678;2023-04-19T09:37:14;3.23;;;2.30;;
15474;SDS011;7839;50.462;9.678;2023-04-19T09:43:54;4.47;;;2.17;;
15474;SDS011;7839;50.462;9.678;2023-04-19T09:57:34;3.67;;;2.23;;
15474;SDS011;7839;50.462;9.678;2023-04-19T10:04:14;6.30;;;2.00;;
15474;SDS011;7839;50.462;9.678;2023-04-19T10:11:01;2.37;;;2.07;;
15474;SDS011;7839;50.462;9.678;2023-04-19T10:17:41;2.30;;;1.80;;
15474;SDS011;7839;50.462;9.678;2023-04-19T10:24:22;1.73;;;1.50;;
15474;SDS011;7839;50.462;9.678;2023-04-19T10:31:03;4.13;;;1.90;;
15474;SDS011;7839;50.462;9.678;2023-04-19T10:51:46;1.87;;;1.00;;
15474;SDS011;7839;50.462;9.678;2023-04-19T10:58:27;2.63;;;1.40;;
15474;SDS011;7839;50.462;9.678;2023-04-19T11:05:07;1.30;;;1.20;;
15474;SDS011;7839;50.462;9.678;2023-04-19T11:11:49;2.17;;;1.30;;
15474;SDS011;7839;50.462;9.678;2023-04-19T11:18:29;1.40;;;1.30;;
15474;SDS011;7839;50.462;9.678;2023-04-19T11:25:16;1.23;;;1.13;;
15474;SDS011;7839;50.462;9.678;2023-04-19T11:31:58;1.67;;;1.30;;
15474;SDS011;7839;50.462;9.678;2023-04-19T11:38:39;2.40;;;1.50;;
15474;SDS011;7839;50.462;9.678;2023-04-19T11:45:23;4.40;;;1.23;;
15474;SDS011;7839;50.462;9.678;2023-04-19T11:52:05;5.87;;;1.47;;
15474;SDS011;7839;50.462;9.678;2023-04-19T11:58:45;1.13;;;0.93;;
15474;SDS011;7839;50.462;9.678;2023-04-19T12:05:28;4.17;;;1.70;;
15474;SDS011;7839;50.462;9.678;2023-04-19T12:12:09;2.57;;;1.43;;
15474;SDS011;7839;50.462;9.678;2023-04-19T12:18:50;2.13;;;1.30;;
15474;SDS011;7839;50.462;9.678;2023-04-19T12:25:31;2.50;;;1.50;;
15474;SDS011;7839;50.462;9.678;2023-04-19T12:32:12;2.50;;;1.60;;
15474;SDS011;7839;50.462;9.678;2023-04-19T12:38:54;2.60;;;1.50;;
15474;SDS011;7839;50.462;9.678;2023-04-19T12:45:35;2.13;;;1.57;;
15474;SDS011;7839;50.462;9.678;2023-04-19T12:52:17;1.97;;;1.33;;
15474;SDS011;7839;50.462;9.678;2023-04-19T12:58:57;1.73;;;1.63;;
15474;SDS011;7839;50.462;9.678;2023-04-19T13:05:38;2.20;;;1.37;;
15474;SDS011;7839;50.462;9.678;2023-04-19T13:12:18;1.60;;;1.50;;
15474;SDS011;7839;50.462;9.678;2023-04-19T13:18:58;2.93;;;1.77;;
15474;SDS011;7839;50.462;9.678;2023-04-19T13:25:39;4.10;;;1.67;;
15474;SDS011;7839;50.462;9.678;2023-04-19T13:32:19;2.13;;;1.77;;
15474;SDS011;7839;50.462;9.678;2023-04-19T13:38:59;1.90;;;1.80;;
15474;SDS011;7839;50.462;9.678;2023-04-19T13:45:39;2.90;;;2.00;;
15474;SDS011;7839;50.462;9.678;2023-04-19T13:52:21;3.23;;;2.13;;
15474;SDS011;7839;50.462;9.678;2023-04-19T13:59:02;1.43;;;1.33;;
15474;SDS011;7839;50.462;9.678;2023-04-19T14:05:42;2.23;;;1.83;;
15474;SDS011;7839;50.462;9.678;2023-04-19T14:12:22;1.80;;;1.70;;
15474;SDS011;7839;50.462;9.678;2023-04-19T14:19:03;1.80;;;1.70;;
15474;SDS011;7839;50.462;9.678;2023-04-19T14:25:43;1.90;;;1.77;;
15474;SDS011;7839;50.462;9.678;2023-04-19T14:32:23;4.67;;;1.80;;
15474;SDS011;7839;50.462;9.678;2023-04-19T14:39:05;2.70;;;2.33;;
15474;SDS011;7839;50.462;9.678;2023-04-19T14:45:46;2.00;;;1.80;;
15474;SDS011;7839;50.462;9.678;2023-04-19T14:52:27;2.67;;;2.13;;
15474;SDS011;7839;50.462;9.678;2023-04-19T14:59:10;3.07;;;2.17;;
15474;SDS011;7839;50.462;9.678;2023-04-19T15:05:50;2.33;;;1.90;;
15474;SDS011;7839;50.462;9.678;2023-04-19T15:12:30;4.57;;;2.20;;
15474;SDS011;7839;50.462;9.678;2023-04-19T15:19:10;4.77;;;2.83;;
15474;SDS011;7839;50.462;9.678;2023-04-19T15:25:51;2.23;;;1.80;;
15474;SDS011;7839;50.462;9.678;2023-04-19T15:32:31;2.03;;;1.50;;
15474;SDS011;7839;50.462;9.678;2023-04-19T15:39:13;3.03;;;1.97;;
15474;SDS011;7839;50.462;9.678;2023-04-19T15:45:53;2.40;;;2.20;;
15474;SDS011;7839;50.462;9.678;2023-04-19T15:52:33;1.90;;;1.60;;
15474;SDS011;7839;50.462;9.678;2023-04-19T15:59:16;2.83;;;2.07;;
15474;SDS011;7839;50.462;9.678;2023-04-19T16:05:56;2.43;;;1.40;;
15474;SDS011;7839;50.462;9.678;2023-04-19T16:12:36;2.20;;;1.73;;
15474;SDS011;7839;50.462;9.678;2023-04-19T16:19:16;3.07;;;2.03;;
15474;SDS011;7839;50.462;9.678;2023-04-19T16:25:57;1.60;;;1.50;;
15474;SDS011;7839;50.462;9.678;2023-04-19T16:32:37;2.80;;;1.93;;
15474;SDS011;7839;50.462;9.678;2023-04-19T16:39:18;3.07;;;1.90;;
15474;SDS011;7839;50.462;9.678;2023-04-19T16:45:59;1.93;;;1.57;;
15474;SDS011;7839;50.462;9.678;2023-04-19T16:52:39;2.97;;;2.05;;
15474;SDS011;7839;50.462;9.678;2023-04-19T16:59:19;4.07;;;2.08;;
15474;SDS011;7839;50.462;9.678;2023-04-19T17:06:01;1.80;;;1.52;;
15474;SDS011;7839;50.462;9.678;2023-04-19T17:12:41;3.53;;;1.90;;
15474;SDS011;7839;50.462;9.678;2023-04-19T17:19:21;3.50;;;1.80;;
15474;SDS011;7839;50.462;9.678;2023-04-19T17:26:01;2.10;;;1.80;;
15474;SDS011;7839;50.462;9.678;2023-04-19T17:32:42;2.20;;;1.93;;
15474;SDS011;7839;50.462;9.678;2023-04-19T17:39:22;2.53;;;2.10;;
15474;SDS011;7839;50.462;9.678;2023-04-19T17:46:08;2.57;;;2.07;;
15474;SDS011;7839;50.462;9.678;2023-04-19T17:52:48;5.93;;;2.43;;
15474;SDS011;7839;50.462;9.678;2023-04-19T17:59:29;2.80;;;2.00;;
15474;SDS011;7839;50.462;9.678;2023-04-19T18:06:09;1.60;;;1.50;;
15474;SDS011;7839;50.462;9.678;2023-04-19T18:12:51;2.47;;;2.00;;
15474;SDS011;7839;50.462;9.678;2023-04-19T18:19:32;3.27;;;2.20;;
15474;SDS011;7839;50.462;9.678;2023-04-19T18:26:13;3.13;;;2.50;;
15474;SDS011;7839;50.462;9.678;2023-04-19T18:32:53;2.40;;;2.20;;
15474;SDS011;7839;50.462;9.678;2023-04-19T18:39:33;2.60;;;2.10;;
15474;SDS011;7839;50.462;9.678;2023-04-19T18:46:13;3.37;;;2.07;;
15474;SDS011;7839;50.462;9.678;2023-04-19T18:52:54;2.67;;;2.30;;
15474;SDS011;7839;50.462;9.678;2023-04-19T18:59:34;3.10;;;2.20;;
15474;SDS011;7839;50.462;9.678;2023-04-19T19:06:14;1.80;;;1.70;;
15474;SDS011;7839;50.462;9.678;2023-04-19T19:12:57;2.30;;;2.10;;
15474;SDS011;7839;50.462;9.678;2023-04-19T19:19:37;1.50;;;1.40;;
15474;SDS011;7839;50.462;9.678;2023-04-19T19:26:17;1.80;;;1.70;;
15474;SDS011;7839;50.462;9.678;2023-04-19T19:32:58;1.60;;;1.50;;
15474;SDS011;7839;50.462;9.678;2023-04-19T19:39:39;1.30;;;1.20;;
15474;SDS011;7839;50.462;9.678;2023-04-19T19:46:19;1.17;;;1.07;;
15474;SDS011;7839;50.462;9.678;2023-04-19T19:53:01;1.33;;;1.23;;
15474;SDS011;7839;50.462;9.678;2023-04-19T19:59:41;1.90;;;1.43;;
15474;SDS011;7839;50.462;9.678;2023-04-19T20:06:21;1.13;;;1.03;;
15474;SDS011;7839;50.462;9.678;2023-04-19T20:13:01;1.40;;;1.30;;
15474;SDS011;7839;50.462;9.678;2023-04-19T20:19:42;1.00;;;1.00;;
15474;SDS011;7839;50.462;9.678;2023-04-19T20:26:24;0.90;;;0.90;;
15474;SDS011;7839;50.462;9.678;2023-04-19T20:33:04;1.03;;;1.03;;
15474;SDS011;7839;50.462;9.678;2023-04-19T20:39:44;1.00;;;0.97;;
15474;SDS011;7839;50.462;9.678;2023-04-19T20:46:24;0.73;;;0.73;;
15474;SDS011;7839;50.462;9.678;2023-04-19T20:53:04;0.83;;;0.83;;
15474;SDS011;7839;50.462;9.678;2023-04-19T20:59:45;1.23;;;1.10;;
15474;SDS011;7839;50.462;9.678;2023-04-19T21:06:28;1.13;;;1.07;;
15474;SDS011;7839;50.462;9.678;2023-04-19T21:13:09;0.90;;;0.90;;
15474;SDS011;7839;50.462;9.678;2023-04-19T21:19:49;0.83;;;0.83;;
15474;SDS011;7839;50.462;9.678;2023-04-19T21:26:29;0.90;;;0.80;;
15474;SDS011;7839;50.462;9.678;2023-04-19T21:33:10;0.80;;;0.80;;
15474;SDS011;7839;50.462;9.678;2023-04-19T21:39:50;0.70;;;0.70;;
15474;SDS011;7839;50.462;9.678;2023-04-19T21:46:32;1.13;;;1.10;;
15474;SDS011;7839;50.462;9.678;2023-04-19T21:53:13;5.17;;;2.73;;
15474;SDS011;7839;50.462;9.678;2023-04-19T21:59:54;6.83;;;3.17;;
15474;SDS011;7839;50.462;9.678;2023-04-19T22:06:34;3.17;;;2.87;;
15474;SDS011;7839;50.462;9.678;2023-04-19T22:13:15;4.40;;;2.73;;
15474;SDS011;7839;50.462;9.678;2023-04-19T22:19:56;3.33;;;2.47;;
15474;SDS011;7839;50.462;9.678;2023-04-19T22:26:38;4.47;;;3.40;;
15474;SDS011;7839;50.462;9.678;2023-04-19T22:33:18;1.33;;;1.23;;
15474;SDS011;7839;50.462;9.678;2023-04-19T22:39:58;1.35;;;1.20;;
15474;SDS011;7839;50.462;9.678;2023-04-19T22:46:39;0.93;;;0.93;;
15474;SDS011;7839;50.462;9.678;2023-04-19T22:53:19;2.40;;;2.20;;
15474;SDS011;7839;50.462;9.678;2023-04-19T22:59:59;1.83;;;0.93;;
15474;SDS011;7839;50.462;9.678;2023-04-19T23:06:44;2.93;;;1.97;;
15474;SDS011;7839;50.462;9.678;2023-04-19T23:13:24;0.80;;;0.80;;
15474;SDS011;7839;50.462;9.678;2023-04-19T23:20:08;0.73;;;0.73;;
15474;SDS011;7839;50.462;9.678;2023-04-19T23:26:50;0.57;;;0.57;;
15474;SDS011;7839;50.462;9.678;2023-04-19T23:33:31;0.70;;;0.70;;
15474;SDS011;7839;50.462;9.678;2023-04-19T23:40:11;9.77;;;3.23;;
15474;SDS011;7839;50.462;9.678;2023-04-19T23:46:51;4.70;;;3.30;;
15474;SDS011;7839;50.462;9.678;2023-04-19T23:53:31;4.57;;;2.97;;
